createdAt,value
2023-03-11T00:00:47.169Z,84.99
2023-03-11T00:03:18.344Z,84.24
2023-03-11T00:05:47.615Z,84.34
2023-03-11T00:08:17.519Z,84.70
2023-03-11T00:10:47.252Z,84.58
2023-03-11T00:13:16.882Z,84.54
2023-03-11T00:15:47.025Z,84.80
2023-03-11T00:18:16.341Z,84.82
2023-03-11T00:20:46.159Z,84.59
2023-03-11T00:23:15.891Z,84.72
2023-03-11T00:25:45.349Z,84.03
2023-03-11T00:28:13.712Z,84.70
2023-03-11T00:30:43.508Z,84.29
2023-03-11T00:33:12.930Z,84.38
2023-03-11T00:35:43.147Z,84.34
2023-03-11T00:38:15.069Z,84.09
2023-03-11T00:40:42.956Z,83.45
2023-03-11T00:43:10.624Z,83.23
2023-03-11T00:45:38.320Z,83.36
2023-03-11T00:48:06.828Z,83.36
2023-03-11T00:50:37.610Z,83.98
2023-03-11T00:53:07.231Z,82.93
2023-03-11T00:55:36.152Z,83.75
2023-03-11T00:58:06.161Z,82.95
2023-03-11T01:00:34.264Z,83.45
2023-03-11T01:03:02.498Z,82.86
2023-03-11T01:05:33.151Z,83.16
2023-03-11T01:08:01.183Z,83.07
2023-03-11T01:10:31.277Z,82.85
2023-03-11T01:12:59.209Z,82.60
2023-03-11T01:15:30.476Z,82.11
2023-03-11T01:17:58.243Z,83.14
2023-03-11T01:20:26.151Z,82.75
2023-03-11T01:22:53.851Z,82.25
2023-03-11T01:25:23.651Z,82.40
2023-03-11T01:27:53.846Z,83.10
2023-03-11T01:30:23.966Z,82.80
2023-03-11T01:32:52.523Z,82.27
2023-03-11T01:35:22.208Z,82.78
2023-03-11T01:37:49.993Z,82.22
2023-03-11T01:40:25.248Z,82.04
2023-03-11T01:42:54.279Z,82.42
2023-03-11T01:45:36.855Z,81.92
2023-03-11T01:48:04.706Z,82.65
2023-03-11T01:50:36.821Z,82.15
2023-03-11T01:53:05.826Z,82.87
2023-03-11T01:55:34.206Z,82.30
2023-03-11T01:58:07.267Z,82.32
2023-03-11T02:00:35.861Z,82.64
2023-03-11T02:03:08.446Z,82.57
2023-03-11T02:05:37.082Z,83.03
2023-03-11T02:08:05.018Z,82.85
2023-03-11T02:10:32.728Z,82.98
2023-03-11T02:13:01.624Z,82.95
2023-03-11T02:15:31.516Z,83.12
2023-03-11T02:18:00.441Z,82.58
2023-03-11T02:20:39.942Z,82.59
2023-03-11T02:23:07.777Z,82.24
2023-03-11T02:25:40.749Z,82.52
2023-03-11T02:28:12.598Z,81.99
2023-03-11T02:30:43.223Z,81.45
2023-03-11T02:33:11.950Z,82.11
2023-03-11T02:35:39.622Z,82.23
2023-03-11T02:38:07.531Z,81.90
2023-03-11T02:40:41.642Z,81.44
2023-03-11T02:43:14.604Z,81.39
2023-03-11T02:45:46.372Z,81.06
2023-03-11T02:48:15.514Z,81.10
2023-03-11T02:50:46.077Z,80.10
2023-03-11T02:53:14.071Z,80.60
2023-03-11T02:55:41.814Z,80.55
2023-03-11T02:58:11.053Z,80.21
2023-03-11T03:00:38.869Z,80.38
2023-03-11T03:03:06.835Z,79.47
2023-03-11T03:05:34.473Z,79.72
2023-03-11T03:08:02.746Z,79.64
2023-03-11T03:10:31.748Z,79.19
2023-03-11T03:12:59.421Z,79.25
2023-03-11T03:15:28.476Z,78.73
2023-03-11T03:17:56.162Z,79.09
2023-03-11T03:20:23.887Z,78.90
2023-03-11T03:22:51.936Z,78.97
2023-03-11T03:25:19.731Z,79.29
2023-03-11T03:27:47.798Z,78.28
2023-03-11T03:30:15.718Z,78.13
2023-03-11T03:32:44.889Z,78.12
2023-03-11T03:35:12.637Z,77.70
2023-03-11T03:37:40.506Z,78.18
2023-03-11T03:40:10.004Z,78.15
2023-03-11T03:42:38.689Z,78.00
2023-03-11T03:45:08.856Z,77.20
2023-03-11T03:47:37.734Z,77.78
2023-03-11T03:50:08.959Z,78.22
2023-03-11T03:52:36.870Z,77.50
2023-03-11T03:55:05.107Z,78.38
2023-03-11T03:57:32.861Z,77.65
2023-03-11T04:00:00.551Z,77.74
2023-03-11T04:02:28.454Z,77.45
2023-03-11T04:04:56.160Z,77.99
2023-03-11T04:07:25.182Z,77.36
2023-03-11T04:09:53.049Z,77.32
2023-03-11T04:12:20.782Z,77.35
2023-03-11T04:14:48.731Z,77.02
2023-03-11T04:17:17.755Z,77.11
2023-03-11T04:19:45.638Z,77.00
2023-03-11T04:22:13.324Z,77.44
2023-03-11T04:24:42.417Z,77.25
2023-03-11T04:27:10.142Z,76.71
2023-03-11T04:29:37.911Z,76.43
2023-03-11T04:32:06.376Z,76.62
2023-03-11T04:34:34.131Z,77.40
2023-03-11T04:37:01.970Z,77.28
2023-03-11T04:39:29.649Z,77.43
2023-03-11T04:41:59.067Z,77.59
2023-03-11T04:44:26.858Z,77.23
2023-03-11T04:46:54.845Z,77.44
2023-03-11T04:49:22.517Z,77.81
2023-03-11T04:51:50.250Z,77.77
2023-03-11T04:54:17.907Z,76.67
2023-03-11T04:56:45.571Z,75.95
2023-03-11T04:59:14.643Z,76.76
2023-03-11T05:01:42.371Z,76.92
2023-03-11T05:04:11.018Z,76.78
2023-03-11T05:06:38.767Z,76.90
2023-03-11T05:09:06.427Z,76.49
2023-03-11T05:11:34.041Z,76.12
2023-03-11T05:14:01.721Z,76.29
2023-03-11T05:16:30.783Z,76.63
2023-03-11T05:18:58.441Z,76.41
2023-03-11T05:21:26.091Z,76.70
2023-03-11T05:23:53.707Z,76.69
2023-03-11T05:26:21.670Z,77.28
2023-03-11T05:28:49.425Z,76.39
2023-03-11T05:31:17.099Z,77.18
2023-03-11T05:33:46.169Z,76.56
2023-03-11T05:36:13.867Z,76.29
2023-03-11T05:38:41.545Z,75.87
2023-03-11T05:41:09.202Z,76.12
2023-03-11T05:43:36.876Z,75.55
2023-03-11T05:46:04.937Z,76.15
2023-03-11T05:48:32.716Z,76.21
2023-03-11T05:51:01.723Z,75.79
2023-03-11T05:53:29.473Z,75.78
2023-03-11T05:55:57.965Z,75.57
2023-03-11T05:58:25.750Z,75.00
2023-03-11T06:00:53.402Z,76.01
2023-03-11T06:03:21.048Z,75.49
2023-03-11T06:05:49.553Z,75.65
2023-03-11T06:08:18.746Z,75.79
2023-03-11T06:10:48.865Z,75.73
2023-03-11T06:13:16.694Z,75.59
2023-03-11T06:15:47.651Z,75.72
2023-03-11T06:18:15.289Z,75.93
2023-03-11T06:20:42.921Z,76.40
2023-03-11T06:23:10.631Z,75.77
2023-03-11T06:25:39.647Z,75.82
2023-03-11T06:28:07.441Z,76.07
2023-03-11T06:30:35.184Z,75.65
2023-03-11T06:33:03.199Z,75.77
2023-03-11T06:35:31.129Z,75.72
2023-03-11T06:37:58.860Z,76.24
2023-03-11T06:40:26.549Z,76.04
2023-03-11T06:42:58.564Z,75.82
2023-03-11T06:45:26.352Z,76.40
2023-03-11T06:47:53.982Z,75.92
2023-03-11T06:50:23.723Z,76.05
2023-03-11T06:52:54.525Z,75.74
2023-03-11T06:55:22.303Z,75.43
2023-03-11T06:57:50.012Z,75.63
2023-03-11T07:00:19.696Z,75.69
2023-03-11T07:02:47.287Z,75.69
2023-03-11T07:05:15.171Z,75.78
2023-03-11T07:07:44.654Z,74.84
2023-03-11T07:10:13.179Z,74.82
2023-03-11T07:12:40.897Z,74.94
2023-03-11T07:15:10.178Z,74.96
2023-03-11T07:17:39.241Z,73.93
2023-03-11T07:20:08.470Z,74.30
2023-03-11T07:22:36.150Z,74.39
2023-03-11T07:25:03.985Z,74.35
2023-03-11T07:27:31.678Z,74.37
2023-03-11T07:29:59.331Z,73.49
2023-03-11T07:32:27.494Z,73.78
2023-03-11T07:34:57.111Z,73.59
2023-03-11T07:37:25.359Z,73.13
2023-03-11T07:39:53.050Z,73.66
2023-03-11T07:42:20.749Z,73.06
2023-03-11T07:44:51.825Z,72.31
2023-03-11T07:47:19.716Z,72.83
2023-03-11T07:49:47.484Z,73.29
2023-03-11T07:52:16.552Z,73.17
2023-03-11T07:54:45.318Z,72.59
2023-03-11T07:57:17.041Z,72.29
2023-03-11T07:59:45.183Z,72.75
2023-03-11T08:02:12.963Z,72.25
2023-03-11T08:04:40.628Z,72.58
2023-03-11T08:07:11.346Z,72.49
2023-03-11T08:09:40.378Z,72.09
2023-03-11T08:12:09.111Z,71.22
2023-03-11T08:14:36.802Z,71.03
2023-03-11T08:17:05.338Z,70.99
2023-03-11T08:19:33.056Z,70.46
2023-03-11T08:22:02.712Z,70.65
2023-03-11T08:24:30.428Z,70.10
2023-03-11T08:26:59.435Z,69.85
2023-03-11T08:29:27.280Z,69.51
2023-03-11T08:31:54.975Z,69.52
2023-03-11T08:34:22.706Z,69.17
2023-03-11T08:36:50.619Z,69.20
2023-03-11T08:39:18.327Z,69.80
2023-03-11T08:41:46.040Z,70.04
2023-03-11T08:44:15.018Z,68.97
2023-03-11T08:46:42.703Z,68.18
2023-03-11T08:49:10.953Z,67.71
2023-03-11T08:51:38.705Z,67.98
2023-03-11T08:54:06.876Z,66.44
2023-03-11T08:56:34.692Z,65.43
2023-03-11T08:59:02.733Z,63.95
2023-03-11T09:01:31.813Z,64.17
2023-03-11T09:03:59.523Z,64.63
2023-03-11T09:06:30.197Z,63.63
2023-03-11T09:08:58.343Z,64.17
2023-03-11T09:11:26.427Z,63.96
2023-03-11T09:13:54.150Z,63.70
2023-03-11T09:16:24.165Z,62.59
2023-03-11T09:18:53.405Z,62.73
2023-03-11T09:21:21.352Z,61.27
2023-03-11T09:23:49.205Z,59.73
2023-03-11T09:26:17.324Z,58.14
2023-03-11T09:28:48.840Z,57.59
2023-03-11T09:31:16.821Z,57.92
2023-03-11T09:33:45.302Z,57.69
2023-03-11T09:36:16.090Z,56.77
2023-03-11T09:38:44.423Z,56.12
2023-03-11T09:41:26.975Z,56.04
2023-03-11T09:44:06.073Z,56.35
2023-03-11T09:47:04.016Z,55.33
2023-03-11T09:49:45.970Z,54.21
2023-03-11T09:52:17.456Z,55.42
2023-03-11T09:54:48.748Z,54.82
2023-03-11T09:57:20.578Z,53.70
2023-03-11T09:59:49.019Z,53.23
2023-03-11T10:02:19.975Z,54.63
2023-03-11T10:04:55.357Z,54.64
2023-03-11T10:07:29.827Z,53.47
2023-03-11T10:09:59.106Z,52.66
2023-03-11T10:12:46.411Z,51.65
2023-03-11T10:15:22.035Z,52.76
2023-03-11T10:18:16.537Z,51.98
2023-03-11T10:20:57.806Z,53.41
2023-03-11T10:23:31.670Z,53.26
2023-03-11T10:26:07.975Z,52.16
2023-03-11T10:28:38.138Z,51.49
2023-03-11T10:31:18.692Z,52.05
2023-03-11T10:33:49.976Z,52.27
2023-03-11T10:36:24.233Z,52.11
2023-03-11T10:38:56.038Z,52.89
2023-03-11T10:41:30.093Z,51.32
2023-03-11T10:44:03.382Z,51.55
2023-03-11T10:46:31.312Z,51.54
2023-03-11T10:48:59.126Z,51.88
2023-03-11T10:51:28.976Z,51.56
2023-03-11T10:53:59.943Z,51.90
2023-03-11T10:56:31.148Z,51.34
2023-03-11T10:58:59.466Z,51.42
2023-03-11T11:01:28.902Z,52.25
2023-03-11T11:03:59.438Z,51.29
2023-03-11T11:06:29.472Z,49.53
2023-03-11T11:09:16.031Z,50.45
2023-03-11T11:11:44.671Z,51.41
2023-03-11T11:14:12.484Z,49.32
2023-03-11T11:16:41.726Z,48.13
2023-03-11T11:19:11.735Z,47.87
2023-03-11T11:21:43.255Z,49.47
2023-03-11T11:24:20.116Z,48.58
2023-03-11T11:27:06.247Z,48.16
2023-03-11T11:29:34.774Z,48.18
2023-03-11T11:32:19.129Z,48.53
2023-03-11T11:34:56.062Z,47.96
2023-03-11T11:37:26.825Z,48.91
2023-03-11T11:40:02.051Z,46.86
2023-03-11T11:42:32.182Z,46.75
2023-03-11T11:45:05.697Z,47.28
2023-03-11T11:47:35.891Z,47.01
2023-03-11T11:50:07.295Z,47.54
2023-03-11T11:52:41.085Z,46.94
2023-03-11T11:55:20.155Z,45.51
2023-03-11T11:57:47.930Z,46.06
2023-03-11T12:00:21.148Z,46.81
2023-03-11T12:03:07.591Z,44.81
2023-03-11T12:05:44.393Z,45.54
2023-03-11T12:08:19.551Z,45.20
2023-03-11T12:10:55.665Z,44.26
2023-03-11T12:13:51.094Z,45.71
2023-03-11T12:16:31.497Z,46.16
2023-03-11T12:19:05.110Z,45.74
2023-03-11T12:21:50.621Z,45.67
2023-03-11T12:24:37.066Z,45.36
2023-03-11T12:27:13.569Z,44.89
2023-03-11T12:29:45.583Z,44.09
2023-03-11T12:32:30.437Z,44.63
2023-03-11T12:35:04.638Z,43.90
2023-03-11T12:37:32.950Z,44.57
2023-03-11T12:40:01.052Z,42.34
2023-03-11T12:42:40.553Z,41.59
2023-03-11T12:45:41.832Z,42.06
2023-03-11T12:48:26.945Z,41.91
2023-03-11T12:50:55.204Z,43.61
2023-03-11T12:53:43.247Z,43.96
2023-03-11T12:56:19.522Z,43.66
2023-03-11T12:59:22.709Z,43.87
2023-03-11T13:02:24.262Z,45.44
2023-03-11T13:05:00.491Z,45.85
2023-03-11T13:07:49.795Z,45.10
2023-03-11T13:10:36.722Z,45.31
2023-03-11T13:13:40.677Z,45.84
2023-03-11T13:16:38.621Z,45.10
2023-03-11T13:19:47.843Z,45.50
2023-03-11T13:22:45.272Z,46.15
2023-03-11T13:25:40.602Z,46.37
2023-03-11T13:28:29.807Z,45.33
2023-03-11T13:31:06.299Z,45.58
2023-03-11T13:33:46.399Z,45.43
2023-03-11T13:36:26.180Z,43.49
2023-03-11T13:39:12.916Z,43.31
2023-03-11T13:41:44.220Z,43.29
2023-03-11T13:44:17.862Z,42.25
2023-03-11T13:46:49.900Z,42.09
2023-03-11T13:49:27.599Z,43.22
2023-03-11T13:51:59.389Z,44.09
2023-03-11T13:54:40.070Z,42.01
2023-03-11T13:57:24.323Z,40.85
2023-03-11T13:59:56.188Z,41.43
2023-03-11T14:02:26.117Z,40.91
2023-03-11T14:04:58.170Z,40.94
2023-03-11T14:07:37.026Z,43.42
2023-03-11T14:10:21.806Z,43.00
2023-03-11T14:12:49.956Z,44.71
2023-03-11T14:15:22.478Z,44.65
2023-03-11T14:17:52.056Z,44.11
2023-03-11T14:20:25.046Z,43.68
2023-03-11T14:22:55.924Z,44.29
2023-03-11T14:25:26.554Z,44.02
2023-03-11T14:27:56.654Z,43.54
2023-03-11T14:30:29.151Z,43.79
2023-03-11T14:32:57.458Z,42.73
2023-03-11T14:35:25.355Z,42.29
2023-03-11T14:37:54.443Z,42.41
2023-03-11T14:40:29.325Z,42.11
2023-03-11T14:43:00.724Z,42.74
2023-03-11T14:45:32.803Z,43.11
2023-03-11T14:48:05.554Z,43.01
2023-03-11T14:50:36.013Z,41.79
2023-03-11T14:53:09.971Z,42.43
2023-03-11T14:55:41.335Z,42.90
2023-03-11T14:58:15.272Z,42.53
2023-03-11T15:00:47.366Z,42.48
2023-03-11T15:03:22.899Z,43.28
2023-03-11T15:05:53.678Z,43.48
2023-03-11T15:08:26.096Z,42.41
2023-03-11T15:11:08.228Z,42.95
2023-03-11T15:13:37.371Z,42.92
2023-03-11T15:16:07.744Z,43.56
2023-03-11T15:18:37.884Z,42.65
2023-03-11T15:21:15.452Z,41.96
2023-03-11T15:23:48.870Z,41.00
2023-03-11T15:26:26.030Z,41.23
2023-03-11T15:29:00.139Z,40.81
2023-03-11T15:31:31.700Z,41.11
2023-03-11T15:34:28.767Z,41.85
2023-03-11T15:37:03.764Z,42.48
2023-03-11T15:39:47.995Z,41.42
2023-03-11T15:42:20.889Z,41.42
2023-03-11T15:45:12.025Z,42.65
2023-03-11T15:47:40.833Z,43.39
2023-03-11T15:50:27.320Z,42.75
2023-03-11T15:52:59.317Z,41.31
2023-03-11T15:55:28.818Z,41.13
2023-03-11T15:58:02.010Z,40.55
2023-03-11T16:00:29.956Z,40.52
2023-03-11T16:02:57.767Z,41.36
2023-03-11T16:05:26.974Z,41.77
2023-03-11T16:07:54.951Z,41.92
2023-03-11T16:10:25.583Z,42.43
2023-03-11T16:12:54.729Z,41.70
2023-03-11T16:15:26.511Z,41.36
2023-03-11T16:17:54.404Z,41.40
2023-03-11T16:20:23.512Z,41.93
2023-03-11T16:22:53.946Z,42.13
2023-03-11T16:25:24.900Z,42.16
2023-03-11T16:27:56.506Z,42.63
2023-03-11T16:30:26.003Z,42.00
2023-03-11T16:32:53.742Z,42.52
2023-03-11T16:35:21.802Z,41.78
2023-03-11T16:37:49.717Z,41.67
2023-03-11T16:40:20.094Z,41.42
2023-03-11T16:42:48.432Z,42.38
2023-03-11T16:45:18.860Z,42.92
2023-03-11T16:47:46.543Z,43.76
2023-03-11T16:50:14.214Z,43.61
2023-03-11T16:52:41.886Z,44.04
2023-03-11T16:55:10.318Z,44.00
2023-03-11T16:57:39.401Z,43.19
2023-03-11T17:00:09.799Z,43.63
2023-03-11T17:02:39.977Z,43.52
2023-03-11T17:05:09.854Z,43.03
2023-03-11T17:07:39.684Z,43.72
2023-03-11T17:10:08.798Z,43.29
2023-03-11T17:12:37.000Z,43.41
2023-03-11T17:15:06.297Z,43.73
2023-03-11T17:17:34.024Z,44.10
2023-03-11T17:20:03.552Z,44.22
2023-03-11T17:22:32.421Z,44.31
2023-03-11T17:25:00.141Z,44.44
2023-03-11T17:27:32.127Z,44.31
2023-03-11T17:30:00.098Z,44.80
2023-03-11T17:32:27.854Z,45.03
2023-03-11T17:34:56.123Z,45.52
2023-03-11T17:37:25.522Z,45.39
2023-03-11T17:39:53.645Z,45.60
2023-03-11T17:42:21.375Z,45.88
2023-03-11T17:44:52.089Z,45.98
2023-03-11T17:47:21.279Z,45.94
2023-03-11T17:49:50.534Z,46.50
2023-03-11T17:52:18.246Z,46.56
2023-03-11T17:54:47.278Z,47.26
2023-03-11T17:57:15.018Z,47.25
2023-03-11T17:59:42.766Z,47.42
2023-03-11T18:02:13.679Z,47.62
2023-03-11T18:04:43.351Z,47.48
2023-03-11T18:07:12.559Z,48.23
2023-03-11T18:09:40.402Z,48.29
2023-03-11T18:12:09.787Z,48.46
2023-03-11T18:14:37.472Z,49.08
2023-03-11T18:17:05.471Z,49.69
2023-03-11T18:19:33.101Z,50.54
2023-03-11T18:22:00.829Z,51.04
2023-03-11T18:24:28.596Z,51.56
2023-03-11T18:26:56.333Z,52.13
2023-03-11T18:29:25.349Z,51.79
2023-03-11T18:31:53.071Z,52.39
2023-03-11T18:34:22.201Z,52.70
2023-03-11T18:36:50.117Z,52.84
2023-03-11T18:39:17.793Z,52.74
2023-03-11T18:41:45.515Z,52.70
2023-03-11T18:44:13.261Z,53.47
2023-03-11T18:46:42.499Z,53.40
2023-03-11T18:49:13.114Z,53.41
2023-03-11T18:51:41.172Z,53.71
2023-03-11T18:54:09.239Z,53.97
2023-03-11T18:56:37.336Z,54.22
2023-03-11T18:59:05.178Z,53.77
2023-03-11T19:01:33.017Z,55.23
2023-03-11T19:04:02.193Z,56.09
2023-03-11T19:06:30.549Z,56.33
2023-03-11T19:08:58.677Z,56.86
2023-03-11T19:11:26.946Z,56.70
2023-03-11T19:13:54.932Z,56.93
2023-03-11T19:16:24.957Z,56.95
2023-03-11T19:18:53.800Z,56.83
2023-03-11T19:21:23.340Z,57.30
2023-03-11T19:23:52.803Z,58.00
2023-03-11T19:26:23.906Z,58.70
2023-03-11T19:28:55.752Z,58.97
2023-03-11T19:31:23.433Z,59.22
2023-03-11T19:33:51.377Z,59.52
2023-03-11T19:36:19.586Z,59.54
2023-03-11T19:38:49.031Z,58.94
2023-03-11T19:41:19.297Z,59.37
2023-03-11T19:43:48.189Z,59.60
2023-03-11T19:46:18.027Z,60.29
2023-03-11T19:48:45.775Z,60.51
2023-03-11T19:51:13.858Z,60.82
2023-03-11T19:53:42.129Z,61.44
2023-03-11T19:56:11.601Z,61.50
2023-03-11T19:58:39.474Z,61.37
2023-03-11T20:01:07.235Z,61.46
2023-03-11T20:03:34.968Z,60.92
2023-03-11T20:06:06.445Z,61.31
2023-03-11T20:08:36.646Z,61.23
2023-03-11T20:11:08.129Z,61.55
2023-03-11T20:13:38.131Z,62.12
2023-03-11T20:16:08.188Z,61.92
2023-03-11T20:18:36.063Z,61.85
2023-03-11T20:21:06.604Z,62.44
2023-03-11T20:23:34.997Z,62.06
2023-03-11T20:26:06.520Z,62.15
2023-03-11T20:28:34.756Z,62.08
2023-03-11T20:31:10.839Z,63.34
2023-03-11T20:33:39.063Z,63.06
2023-03-11T20:36:08.827Z,63.27
2023-03-11T20:38:36.653Z,63.07
2023-03-11T20:41:06.179Z,62.97
2023-03-11T20:43:34.120Z,62.60
2023-03-11T20:46:02.395Z,62.85
2023-03-11T20:48:31.871Z,62.50
2023-03-11T20:51:01.261Z,62.61
2023-03-11T20:53:30.393Z,62.77
2023-03-11T20:55:58.442Z,62.92
2023-03-11T20:58:26.507Z,62.39
2023-03-11T21:00:54.316Z,62.98
2023-03-11T21:03:22.368Z,63.11
2023-03-11T21:05:54.561Z,63.11
2023-03-11T21:08:22.766Z,62.98
2023-03-11T21:10:50.884Z,63.30
2023-03-11T21:13:18.549Z,63.40
2023-03-11T21:15:46.277Z,62.89
2023-03-11T21:18:13.946Z,62.60
2023-03-11T21:20:41.756Z,63.46
2023-03-11T21:23:10.833Z,62.86
2023-03-11T21:25:42.605Z,63.47
2023-03-11T21:28:10.320Z,63.46
2023-03-11T21:30:38.160Z,63.49
2023-03-11T21:33:05.882Z,63.22
2023-03-11T21:35:33.725Z,63.57
2023-03-11T21:38:01.484Z,63.01
2023-03-11T21:40:30.576Z,62.93
2023-03-11T21:42:58.237Z,62.31
2023-03-11T21:45:26.060Z,62.45
2023-03-11T21:47:53.954Z,61.95
2023-03-11T21:50:21.673Z,61.97
2023-03-11T21:52:49.347Z,61.60
2023-03-11T21:55:17.176Z,62.07
2023-03-11T21:57:46.372Z,61.99
2023-03-11T22:00:14.792Z,61.43
2023-03-11T22:02:42.567Z,61.50
2023-03-11T22:05:12.078Z,62.11
2023-03-11T22:07:39.787Z,62.07
2023-03-11T22:10:08.948Z,61.50
2023-03-11T22:12:36.864Z,61.90
2023-03-11T22:15:07.034Z,61.65
2023-03-11T22:17:34.924Z,61.46
2023-03-11T22:20:05.411Z,62.31
2023-03-11T22:22:33.322Z,62.55
2023-03-11T22:25:01.094Z,62.88
2023-03-11T22:27:29.104Z,62.47
2023-03-11T22:29:56.804Z,61.84
2023-03-11T22:32:26.134Z,61.60
2023-03-11T22:34:53.854Z,61.55
2023-03-11T22:37:21.454Z,61.46
2023-03-11T22:39:49.156Z,61.85
2023-03-11T22:42:16.964Z,61.91
2023-03-11T22:44:44.701Z,61.92
2023-03-11T22:47:12.483Z,61.74
2023-03-11T22:49:42.562Z,61.25
2023-03-11T22:52:10.388Z,61.69
2023-03-11T22:54:38.239Z,60.83
2023-03-11T22:57:06.298Z,60.75
2023-03-11T22:59:33.972Z,61.26
2023-03-11T23:02:01.737Z,61.07
2023-03-11T23:04:29.564Z,60.57
2023-03-11T23:06:59.228Z,60.89
2023-03-11T23:09:27.059Z,61.27
2023-03-11T23:11:54.894Z,61.36
2023-03-11T23:14:30.676Z,61.59
2023-03-11T23:17:05.922Z,61.19
2023-03-11T23:19:33.708Z,61.72
2023-03-11T23:22:02.898Z,62.16
2023-03-11T23:24:30.587Z,62.12
2023-03-11T23:26:58.256Z,62.22
2023-03-11T23:29:26.034Z,62.28
2023-03-11T23:31:53.668Z,61.84
2023-03-11T23:34:21.394Z,61.98
2023-03-11T23:36:49.251Z,61.91
2023-03-11T23:39:18.389Z,62.04
2023-03-11T23:41:46.626Z,61.29
2023-03-11T23:44:14.733Z,60.70
2023-03-11T23:46:42.366Z,60.83
2023-03-11T23:49:10.255Z,60.33
2023-03-11T23:51:37.945Z,60.25
2023-03-11T23:54:06.254Z,59.69
2023-03-11T23:56:35.319Z,60.00
2023-03-11T23:59:03.102Z,59.81
